logo
Search for airport 
image banner adimage banner adimage banner ad
image banner ad

FQPO - Ponta De Ouro / National

Located in , Mozambique

ICAO - FQPO, IATA - PDD

Data provided by Airmate  

General information

Coordinates: S26°49'60" E32°50'0"
Elevation is 95 feet MSL.
 
View others Airports in Maputo Province

Operational data

Special qualification required
Current time UTC:
Current local time:
Weather at : - ( 0 km )
METAR: CYNM 131841Z AUTO 30021G28KT 1SM -SN FEW006 SCT011 OVC015 M01/M02 A2943 RMK SLP983
View NOTAMs / SUP AIP / TFR affecting this airport [VIEW]
Communications frequencies: [VIEW]

Runways:

RWY identifierQFULength (ft)Width (ft)SurfaceLDA (ft)
03246175UNK
21246175UNK
12246175UNK
30246175UNK

Airport contact information

Address: Mozambique

Satellite view of FQPO